createdAt,value
2019-01-06T00:01:48.959Z,7.50
2019-01-06T00:04:39.634Z,7.50
2019-01-06T00:07:25.069Z,7.50
2019-01-06T00:10:17.694Z,7.90
2019-01-06T00:13:22.741Z,7.50
2019-01-06T00:16:09.547Z,7.50
2019-01-06T00:19:05.267Z,7.50
2019-01-06T00:21:52.035Z,7.40
2019-01-06T00:24:44.362Z,7.50
2019-01-06T00:27:29.809Z,7.40
2019-01-06T00:30:19.367Z,7.40
2019-01-06T00:33:03.217Z,7.50
2019-01-06T00:35:42.516Z,7.50
2019-01-06T00:38:32.375Z,7.50
2019-01-06T00:41:17.477Z,7.50
2019-01-06T00:44:03.330Z,7.50
2019-01-06T00:47:02.671Z,7.50
2019-01-06T00:49:52.111Z,7.50
2019-01-06T00:52:37.614Z,7.50
2019-01-06T00:55:32.622Z,7.90
2019-01-06T00:58:13.589Z,7.50
2019-01-06T01:01:00.369Z,7.50
2019-01-06T01:03:54.957Z,7.50
2019-01-06T01:06:51.045Z,7.50
2019-01-06T01:09:54.403Z,7.50
2019-01-06T01:12:34.974Z,7.50
2019-01-06T01:15:20.766Z,7.50
2019-01-06T01:18:16.893Z,7.50
2019-01-06T01:20:57.142Z,7.60
2019-01-06T01:23:42.912Z,7.40
2019-01-06T01:26:48.480Z,7.40
2019-01-06T01:29:35.650Z,7.40
2019-01-06T01:32:22.443Z,7.40
2019-01-06T01:35:11.813Z,7.40
2019-01-06T01:38:04.448Z,7.60
2019-01-06T01:40:49.950Z,7.40
2019-01-06T01:43:44.884Z,7.40
2019-01-06T01:46:46.666Z,7.40
2019-01-06T01:49:35.846Z,7.50
2019-01-06T01:52:25.766Z,7.40
2019-01-06T01:55:11.307Z,7.40
2019-01-06T01:58:03.796Z,7.40
2019-01-06T02:00:43.362Z,7.40
2019-01-06T02:03:28.930Z,7.40
2019-01-06T02:06:14.098Z,7.40
2019-01-06T02:09:09.524Z,7.40
2019-01-06T02:12:02.171Z,7.40
2019-01-06T02:14:38.692Z,7.40
2019-01-06T02:17:31.010Z,7.40
2019-01-06T02:20:27.177Z,7.40
2019-01-06T02:23:15.131Z,7.40
2019-01-06T02:26:09.990Z,7.40
2019-01-06T02:28:55.477Z,7.40
2019-01-06T02:31:37.478Z,7.40
2019-01-06T02:34:22.705Z,7.40
2019-01-06T02:37:15.028Z,7.40
2019-01-06T02:40:12.362Z,7.70
2019-01-06T02:43:17.171Z,7.40
2019-01-06T02:46:15.987Z,7.40
2019-01-06T02:49:10.430Z,7.40
2019-01-06T02:52:12.049Z,7.40
2019-01-06T02:54:57.488Z,7.40
2019-01-06T02:57:42.584Z,7.40
2019-01-06T03:00:44.215Z,7.40
2019-01-06T03:03:39.885Z,7.40
2019-01-06T03:06:29.419Z,7.40
2019-01-06T03:09:28.296Z,7.40
2019-01-06T03:12:24.136Z,7.50
2019-01-06T03:15:10.999Z,7.50
2019-01-06T03:17:51.239Z,7.50
2019-01-06T03:20:46.593Z,7.50
2019-01-06T03:23:36.109Z,7.50
2019-01-06T03:26:28.712Z,7.60
2019-01-06T03:29:24.154Z,7.60
2019-01-06T03:32:23.052Z,7.60
2019-01-06T03:35:03.549Z,7.70
2019-01-06T03:37:48.969Z,7.80
2019-01-06T03:40:34.362Z,7.70
2019-01-06T03:43:11.754Z,7.60
2019-01-06T03:46:07.399Z,7.60
2019-01-06T03:48:59.850Z,7.60
2019-01-06T03:51:45.849Z,7.60
2019-01-06T03:54:37.734Z,7.60
2019-01-06T03:57:22.892Z,7.70
2019-01-06T04:00:08.256Z,7.60
2019-01-06T04:02:55.120Z,7.60
2019-01-06T04:05:47.639Z,7.60
2019-01-06T04:08:40.254Z,7.70
2019-01-06T04:11:24.507Z,7.60
2019-01-06T04:14:10.326Z,7.60
2019-01-06T04:17:02.653Z,7.60
2019-01-06T04:19:55.225Z,7.60
2019-01-06T04:22:40.652Z,7.70
2019-01-06T04:25:30.250Z,7.70
2019-01-06T04:28:14.891Z,7.60
2019-01-06T04:31:00.117Z,7.60
2019-01-06T04:33:45.263Z,7.70
2019-01-06T04:36:40.839Z,7.70
2019-01-06T04:39:33.967Z,7.80
2019-01-06T04:42:23.740Z,7.60
2019-01-06T04:45:13.350Z,7.60
2019-01-06T04:47:58.952Z,7.70
2019-01-06T04:50:44.124Z,7.70
2019-01-06T04:53:26.328Z,7.70
2019-01-06T04:56:15.991Z,7.70
2019-01-06T04:59:11.402Z,7.70
2019-01-06T05:01:56.653Z,7.70
2019-01-06T05:04:49.352Z,7.70
2019-01-06T05:07:45.228Z,7.70
2019-01-06T05:10:40.815Z,7.70
2019-01-06T05:13:20.478Z,7.70
2019-01-06T05:16:22.085Z,7.70
2019-01-06T05:19:09.862Z,7.70
2019-01-06T05:21:55.487Z,7.70
2019-01-06T05:24:40.649Z,7.70
2019-01-06T05:27:27.753Z,7.70
2019-01-06T05:30:14.488Z,7.70
2019-01-06T05:33:10.301Z,7.70
2019-01-06T05:35:57.064Z,7.80
2019-01-06T05:38:59.041Z,7.70
2019-01-06T05:41:48.541Z,7.80
2019-01-06T05:44:44.357Z,7.80
2019-01-06T05:47:29.749Z,7.80
2019-01-06T05:50:15.181Z,7.80
2019-01-06T05:53:00.903Z,7.80
2019-01-06T05:55:43.995Z,7.80
2019-01-06T05:58:33.766Z,7.70
2019-01-06T06:01:26.327Z,7.70
2019-01-06T06:04:11.693Z,8.00
2019-01-06T06:06:52.579Z,7.90
2019-01-06T06:09:45.112Z,7.90
2019-01-06T06:12:37.667Z,7.70
2019-01-06T06:15:22.907Z,7.80
2019-01-06T06:18:09.669Z,7.80
2019-01-06T06:21:05.409Z,7.80
2019-01-06T06:23:54.985Z,7.80
2019-01-06T06:26:41.774Z,7.80
2019-01-06T06:29:27.114Z,7.80
2019-01-06T06:32:19.539Z,7.80
2019-01-06T06:35:06.379Z,7.80
2019-01-06T06:37:51.716Z,7.80
2019-01-06T06:40:41.491Z,7.90
2019-01-06T06:43:28.272Z,7.80
2019-01-06T06:46:11.494Z,7.80
2019-01-06T06:48:56.968Z,7.80
2019-01-06T06:51:48.586Z,7.90
2019-01-06T06:54:34.071Z,7.80
2019-01-06T06:57:56.604Z,7.80
2019-01-06T07:01:19.261Z,7.80
2019-01-06T07:04:04.800Z,7.70
2019-01-06T07:06:54.851Z,7.70
2019-01-06T07:09:54.437Z,7.70
2019-01-06T07:12:40.443Z,7.70
2019-01-06T07:15:26.354Z,7.70
2019-01-06T07:18:26.437Z,7.70
2019-01-06T07:21:22.074Z,7.70
2019-01-06T07:24:07.517Z,7.70
2019-01-06T07:27:12.368Z,7.70
2019-01-06T07:29:57.544Z,7.70
2019-01-06T07:32:48.065Z,7.70
2019-01-06T07:35:33.470Z,7.70
2019-01-06T07:38:32.016Z,7.80
2019-01-06T07:41:30.777Z,7.80
2019-01-06T07:44:23.646Z,7.80
2019-01-06T07:47:13.231Z,7.80
2019-01-06T07:50:15.389Z,7.80
2019-01-06T07:53:07.960Z,7.90
2019-01-06T07:56:12.671Z,7.90
2019-01-06T07:58:53.506Z,7.90
2019-01-06T08:01:48.590Z,7.90
2019-01-06T08:04:35.366Z,8.00
2019-01-06T08:07:34.094Z,7.90
2019-01-06T08:10:20.848Z,7.90
2019-01-06T08:13:13.213Z,8.00
2019-01-06T08:16:18.150Z,8.10
2019-01-06T08:19:05.598Z,8.10
2019-01-06T08:21:50.812Z,8.00
2019-01-06T08:24:36.078Z,8.00
2019-01-06T08:27:28.417Z,8.00
2019-01-06T08:30:19.996Z,8.00
2019-01-06T08:33:09.603Z,8.00
2019-01-06T08:36:01.256Z,8.00
2019-01-06T08:38:46.477Z,8.00
2019-01-06T08:41:31.590Z,8.00
2019-01-06T08:44:33.315Z,8.00
2019-01-06T08:47:32.089Z,8.00
2019-01-06T08:50:25.173Z,8.00
2019-01-06T08:53:02.936Z,8.00
2019-01-06T08:55:58.304Z,8.00
2019-01-06T08:58:54.074Z,8.40
2019-01-06T09:01:37.889Z,8.10
2019-01-06T09:04:18.891Z,8.20
2019-01-06T09:07:05.757Z,8.10
2019-01-06T09:09:49.535Z,8.10
2019-01-06T09:12:42.776Z,8.10
2019-01-06T09:15:24.830Z,8.20
2019-01-06T09:18:10.241Z,8.60
2019-01-06T09:20:57.030Z,8.20
2019-01-06T09:24:03.301Z,8.20
2019-01-06T09:26:48.657Z,8.30
2019-01-06T09:29:33.882Z,8.30
2019-01-06T09:32:19.597Z,8.20
2019-01-06T09:35:04.703Z,8.30
2019-01-06T09:38:00.884Z,8.30
2019-01-06T09:40:47.769Z,8.20
2019-01-06T09:43:37.223Z,8.30
2019-01-06T09:46:23.977Z,8.30
2019-01-06T09:49:25.695Z,8.30
2019-01-06T09:52:15.493Z,8.30
2019-01-06T09:55:01.019Z,8.30
2019-01-06T09:57:50.331Z,8.40
2019-01-06T10:00:35.697Z,8.40
2019-01-06T10:03:34.381Z,8.40
2019-01-06T10:06:19.867Z,8.40
2019-01-06T10:09:05.134Z,8.40
2019-01-06T10:11:50.368Z,8.40
2019-01-06T10:14:46.367Z,8.40
2019-01-06T10:17:35.907Z,8.40
2019-01-06T10:20:30.970Z,8.40
2019-01-06T10:23:16.634Z,8.40
2019-01-06T10:26:01.979Z,8.40
2019-01-06T10:28:48.777Z,8.40
2019-01-06T10:31:34.240Z,8.40
2019-01-06T10:34:33.611Z,8.30
2019-01-06T10:37:19.036Z,8.60
2019-01-06T10:40:01.730Z,8.40
2019-01-06T10:44:53.932Z,8.30
2019-01-06T10:47:39.100Z,8.40
2019-01-06T10:50:24.721Z,8.40
2019-01-06T10:53:09.318Z,8.40
2019-01-06T10:56:08.236Z,8.40
2019-01-06T10:58:50.538Z,8.40
2019-01-06T11:01:43.541Z,8.40
2019-01-06T11:04:34.410Z,8.40
2019-01-06T11:07:20.746Z,8.40
2019-01-06T11:10:19.846Z,8.40
2019-01-06T11:14:50.246Z,8.40
2019-01-06T11:17:35.435Z,8.50
2019-01-06T11:20:25.213Z,8.50
2019-01-06T11:23:18.115Z,8.50
2019-01-06T11:26:05.005Z,8.50
2019-01-06T11:28:48.975Z,8.50
2019-01-06T11:31:34.594Z,8.50
2019-01-06T11:34:17.165Z,8.50
2019-01-06T11:37:02.443Z,8.50
2019-01-06T11:39:51.745Z,8.50
2019-01-06T11:42:36.176Z,8.50
2019-01-06T11:45:22.116Z,8.50
2019-01-06T11:48:20.761Z,7.70
2019-01-06T11:51:06.385Z,8.50
2019-01-06T11:54:01.650Z,8.70
2019-01-06T11:56:40.945Z,8.40
2019-01-06T11:59:30.775Z,8.40
2019-01-06T12:02:14.664Z,8.40
2019-01-06T12:04:59.884Z,8.50
2019-01-06T12:07:45.089Z,8.50
2019-01-06T12:10:26.919Z,8.50
2019-01-06T12:13:19.697Z,8.50
2019-01-06T12:16:18.985Z,8.50
2019-01-06T12:19:11.818Z,8.40
2019-01-06T12:22:03.863Z,8.40
2019-01-06T12:24:49.447Z,8.40
2019-01-06T12:27:35.409Z,8.50
2019-01-06T12:30:34.153Z,8.50
2019-01-06T12:33:29.933Z,8.40
2019-01-06T12:36:16.821Z,8.40
2019-01-06T12:39:02.864Z,9.00
2019-01-06T12:41:46.240Z,8.40
2019-01-06T12:44:31.667Z,8.40
2019-01-06T12:47:18.444Z,8.40
2019-01-06T12:49:57.563Z,8.60
2019-01-06T12:52:56.381Z,8.40
2019-01-06T12:56:01.140Z,8.40
2019-01-06T12:59:06.227Z,8.40
2019-01-06T13:01:58.864Z,8.50
2019-01-06T13:04:45.826Z,8.50
2019-01-06T13:07:35.142Z,8.50
2019-01-06T13:10:33.975Z,8.50
2019-01-06T13:13:19.364Z,8.50
2019-01-06T13:16:12.657Z,8.50
2019-01-06T13:18:59.418Z,8.50
2019-01-06T13:21:55.254Z,8.50
2019-01-06T13:24:41.075Z,8.50
2019-01-06T13:27:26.314Z,8.50
2019-01-06T13:30:13.072Z,8.50
2019-01-06T13:32:59.869Z,8.50
2019-01-06T13:35:45.207Z,8.50
2019-01-06T13:38:35.134Z,8.70
2019-01-06T13:41:27.752Z,8.50
2019-01-06T13:44:12.616Z,8.60
2019-01-06T13:47:02.138Z,8.50
2019-01-06T13:49:47.640Z,8.50
2019-01-06T13:52:36.953Z,8.60
2019-01-06T13:55:37.681Z,6.30
2019-01-06T13:58:39.783Z,8.50
2019-01-06T14:01:32.979Z,8.40
2019-01-06T14:04:28.580Z,8.90
2019-01-06T14:07:15.374Z,8.50
2019-01-06T14:10:08.964Z,8.50
2019-01-06T14:12:54.424Z,8.40
2019-01-06T14:15:56.006Z,8.50
2019-01-06T14:18:47.098Z,8.40
2019-01-06T14:21:32.207Z,8.50
2019-01-06T14:24:27.595Z,8.40
2019-01-06T14:27:13.083Z,8.40
2019-01-06T14:29:58.422Z,8.40
2019-01-06T14:32:41.030Z,8.40
2019-01-06T14:35:28.906Z,8.30
2019-01-06T14:38:15.678Z,8.40
2019-01-06T14:41:02.463Z,8.50
2019-01-06T14:43:47.701Z,8.40
2019-01-06T14:46:32.923Z,8.40
2019-01-06T14:49:28.323Z,8.40
2019-01-06T14:52:23.988Z,8.40
2019-01-06T14:55:15.149Z,8.40
2019-01-06T14:58:01.918Z,8.60
2019-01-06T15:00:47.190Z,8.40
2019-01-06T15:03:34.093Z,8.40
2019-01-06T15:06:24.121Z,8.40
2019-01-06T15:09:09.566Z,8.40
2019-01-06T15:11:56.440Z,8.40
2019-01-06T15:15:01.317Z,8.40
2019-01-06T15:17:53.857Z,8.40
2019-01-06T15:20:39.324Z,8.40
2019-01-06T15:23:20.942Z,8.40
2019-01-06T15:26:06.197Z,8.40
2019-01-06T15:29:02.343Z,8.30
2019-01-06T15:32:04.062Z,8.50
2019-01-06T15:35:07.410Z,8.60
2019-01-06T15:37:52.822Z,8.30
2019-01-06T15:40:35.674Z,8.30
2019-01-06T15:43:38.450Z,8.30
2019-01-06T15:46:43.276Z,8.30
2019-01-06T15:49:26.405Z,8.60
2019-01-06T15:52:11.418Z,8.20
2019-01-06T15:55:01.000Z,8.30
2019-01-06T15:57:50.651Z,8.30
2019-01-06T16:00:47.380Z,8.30
2019-01-06T16:03:32.567Z,8.40
2019-01-06T16:06:18.469Z,8.40
2019-01-06T16:09:04.302Z,8.30
2019-01-06T16:12:06.015Z,8.30
2019-01-06T16:14:45.726Z,8.20
2019-01-06T16:17:38.520Z,8.20
2019-01-06T16:20:24.126Z,8.20
2019-01-06T16:23:09.286Z,8.20
2019-01-06T16:25:56.049Z,8.30
2019-01-06T16:28:48.783Z,8.20
2019-01-06T16:31:34.456Z,8.20
2019-01-06T16:34:21.596Z,8.20
2019-01-06T16:37:14.212Z,8.20
2019-01-06T16:40:12.495Z,8.30
2019-01-06T16:42:57.581Z,8.30
2019-01-06T16:45:54.728Z,8.30
2019-01-06T16:48:56.594Z,8.30
2019-01-06T16:51:49.426Z,8.20
2019-01-06T16:54:34.983Z,8.30
2019-01-06T16:57:20.597Z,8.30
2019-01-06T17:00:25.742Z,8.20
2019-01-06T17:03:12.631Z,8.30
2019-01-06T17:06:07.552Z,8.30
2019-01-06T17:08:59.889Z,8.20
2019-01-06T17:11:45.457Z,8.30
2019-01-06T17:14:41.990Z,8.30
2019-01-06T17:17:40.047Z,8.30
2019-01-06T17:20:29.349Z,8.30
2019-01-06T17:23:16.123Z,8.30
2019-01-06T17:26:15.330Z,8.50
2019-01-06T17:29:00.842Z,8.30
2019-01-06T17:31:47.663Z,8.80
2019-01-06T17:34:33.151Z,8.30
2019-01-06T17:37:22.448Z,8.30
2019-01-06T17:40:09.120Z,8.50
2019-01-06T17:42:54.637Z,8.30
2019-01-06T17:45:40.115Z,8.30
2019-01-06T17:48:20.258Z,8.30
2019-01-06T17:51:05.667Z,8.30
2019-01-06T17:53:58.237Z,8.30
2019-01-06T17:57:00.170Z,8.30
2019-01-06T17:59:45.863Z,8.30
2019-01-06T18:02:36.014Z,8.30
2019-01-06T18:05:38.506Z,8.30
2019-01-06T18:08:43.581Z,8.30
2019-01-06T18:11:29.001Z,8.30
2019-01-06T18:14:14.674Z,8.30
2019-01-06T18:16:59.044Z,8.30
2019-01-06T18:19:51.355Z,8.30
2019-01-06T18:22:36.970Z,8.30
2019-01-06T18:25:39.355Z,8.30
2019-01-06T18:28:38.271Z,8.20
2019-01-06T18:31:30.434Z,8.70
2019-01-06T18:34:20.071Z,8.20
2019-01-06T18:37:05.395Z,8.20
2019-01-06T18:39:54.690Z,8.20
2019-01-06T18:42:40.268Z,8.30
2019-01-06T18:45:42.499Z,8.30
2019-01-06T18:48:32.197Z,8.30
2019-01-06T18:51:17.628Z,8.30
2019-01-06T18:54:00.718Z,8.30
2019-01-06T18:56:51.671Z,8.30
2019-01-06T18:59:50.251Z,8.30
2019-01-06T19:02:49.138Z,8.30
2019-01-06T19:05:34.519Z,8.30
2019-01-06T19:08:19.779Z,8.30
2019-01-06T19:11:18.926Z,8.30
2019-01-06T19:14:04.536Z,8.30
2019-01-06T19:16:53.830Z,8.30
2019-01-06T19:19:39.509Z,8.30
2019-01-06T19:22:44.418Z,8.30
2019-01-06T19:25:29.752Z,8.30
2019-01-06T19:28:15.028Z,8.30
2019-01-06T19:31:07.529Z,8.30
2019-01-06T19:33:53.303Z,8.30
2019-01-06T19:36:47.805Z,8.30
2019-01-06T19:39:36.618Z,8.30
2019-01-06T19:42:26.136Z,8.30
2019-01-06T19:45:18.840Z,8.30
2019-01-06T19:48:01.892Z,8.30
2019-01-06T19:51:00.922Z,8.40
2019-01-06T19:53:46.340Z,8.40
2019-01-06T19:56:35.800Z,8.50
2019-01-06T20:02:35.012Z,8.40
2019-01-06T20:05:21.810Z,8.40
2019-01-06T20:08:20.676Z,8.40
2019-01-06T20:11:10.521Z,8.40
2019-01-06T20:13:57.338Z,8.40
2019-01-06T20:16:46.915Z,8.70
2019-01-06T20:19:33.686Z,8.40
2019-01-06T20:22:20.459Z,8.40
2019-01-06T20:25:05.564Z,8.30
2019-01-06T20:28:01.519Z,8.30
2019-01-06T20:30:45.901Z,8.30
2019-01-06T20:33:31.418Z,8.30
2019-01-06T20:36:10.915Z,8.30
2019-01-06T20:39:04.273Z,8.40
2019-01-06T20:42:03.103Z,8.30
2019-01-06T20:44:50.593Z,8.30
2019-01-06T20:47:55.471Z,8.40
2019-01-06T20:51:00.720Z,8.30
2019-01-06T20:53:56.977Z,8.30
2019-01-06T20:56:43.740Z,8.30
2019-01-06T20:59:36.543Z,8.30
2019-01-06T21:02:22.271Z,8.30
2019-01-06T21:05:08.014Z,8.40
2019-01-06T21:07:51.830Z,8.30
2019-01-06T21:10:40.712Z,8.70
2019-01-06T21:13:21.972Z,8.30
2019-01-06T21:16:13.103Z,8.30
2019-01-06T21:18:58.733Z,8.30
2019-01-06T21:21:45.547Z,8.40
2019-01-06T21:24:31.274Z,8.30
2019-01-06T21:27:17.249Z,8.30
2019-01-06T21:30:00.768Z,8.30
2019-01-06T21:32:46.208Z,8.30
2019-01-06T21:35:35.614Z,8.30
2019-01-06T21:38:21.065Z,8.30
2019-01-06T21:41:10.846Z,8.30
2019-01-06T21:43:57.651Z,8.30
2019-01-06T21:47:02.572Z,8.30
2019-01-06T21:49:55.496Z,8.30
2019-01-06T21:52:42.322Z,8.40
2019-01-06T21:55:35.042Z,8.30
2019-01-06T21:58:20.476Z,8.40
2019-01-06T22:01:09.029Z,8.40
2019-01-06T22:03:54.280Z,8.40
2019-01-06T22:06:53.480Z,8.50
2019-01-06T22:09:40.264Z,8.80
2019-01-06T22:12:30.697Z,8.30
2019-01-06T22:15:17.471Z,8.30
2019-01-06T22:18:09.796Z,8.30
2019-01-06T22:20:55.759Z,8.40
2019-01-06T22:23:41.219Z,8.30
2019-01-06T22:26:30.510Z,8.30
2019-01-06T22:29:20.056Z,8.30
2019-01-06T22:32:05.610Z,8.30
2019-01-06T22:35:01.250Z,8.30
2019-01-06T22:38:00.676Z,8.30
2019-01-06T22:40:50.211Z,8.30
2019-01-06T22:43:35.665Z,8.30
2019-01-06T22:46:21.029Z,8.60
2019-01-06T22:49:10.594Z,8.30
2019-01-06T22:51:56.065Z,8.30
2019-01-06T22:54:46.011Z,8.20
2019-01-06T22:57:31.618Z,8.20
2019-01-06T23:00:30.741Z,8.30
2019-01-06T23:03:20.128Z,8.30
2019-01-06T23:06:00.362Z,8.30
2019-01-06T23:08:38.801Z,8.30
2019-01-06T23:11:31.392Z,8.50
2019-01-06T23:14:12.312Z,8.30
2019-01-06T23:17:17.292Z,8.30
2019-01-06T23:20:04.867Z,8.30
2019-01-06T23:22:50.269Z,8.40
2019-01-06T23:25:35.493Z,8.40
2019-01-06T23:28:30.155Z,8.60
2019-01-06T23:31:19.436Z,8.40
2019-01-06T23:34:12.151Z,8.30
2019-01-06T23:36:57.623Z,8.30
2019-01-06T23:39:44.409Z,8.30
2019-01-06T23:42:43.263Z,8.30
2019-01-06T23:45:28.691Z,8.30
2019-01-06T23:48:33.344Z,8.30
2019-01-06T23:51:18.924Z,8.30
2019-01-06T23:54:08.439Z,8.30
2019-01-06T23:56:57.068Z,8.30
2019-01-06T23:59:49.981Z,8.30
